sensor_id;sensor_type;location;lat;lon;timestamp;pressure;altitude;pressure_sealevel;temperature;humidity
55759;BME280;41678;52.126;20.664;2022-07-06T00:04:34;100512.13;;;17.38;81.97
55759;BME280;41678;52.126;20.664;2022-07-06T00:09:54;100512.34;;;17.32;82.29
55759;BME280;41678;52.126;20.664;2022-07-06T00:15:14;100501.84;;;17.29;82.06
55759;BME280;41678;52.126;20.664;2022-07-06T00:20:34;100491.41;;;17.23;82.78
55759;BME280;41678;52.126;20.664;2022-07-06T00:25:54;100497.63;;;17.22;82.28
55759;BME280;41678;52.126;20.664;2022-07-06T00:31:14;100488.97;;;17.17;82.15
55759;BME280;41678;52.126;20.664;2022-07-06T00:36:34;100489.66;;;17.22;82.04
55759;BME280;41678;52.126;20.664;2022-07-06T00:41:55;100486.31;;;17.17;82.16
55759;BME280;41678;52.126;20.664;2022-07-06T00:47:16;100479.25;;;17.16;82.10
55759;BME280;41678;52.126;20.664;2022-07-06T00:52:36;100481.06;;;17.13;81.96
55759;BME280;41678;52.126;20.664;2022-07-06T00:57:56;100468.69;;;17.12;81.98
55759;BME280;41678;52.126;20.664;2022-07-06T01:03:16;100473.56;;;17.25;82.12
55759;BME280;41678;52.126;20.664;2022-07-06T01:08:37;100475.09;;;17.32;82.78
55759;BME280;41678;52.126;20.664;2022-07-06T01:13:59;100457.97;;;17.16;83.09
55759;BME280;41678;52.126;20.664;2022-07-06T01:19:20;100456.28;;;17.13;82.95
55759;BME280;41678;52.126;20.664;2022-07-06T01:24:39;100444.94;;;17.08;82.86
55759;BME280;41678;52.126;20.664;2022-07-06T01:30:00;100448.56;;;17.05;82.33
55759;BME280;41678;52.126;20.664;2022-07-06T01:35:19;100446.75;;;17.06;82.12
55759;BME280;41678;52.126;20.664;2022-07-06T01:40:39;100433.59;;;17.03;81.81
55759;BME280;41678;52.126;20.664;2022-07-06T01:45:59;100440.63;;;17.04;82.52
55759;BME280;41678;52.126;20.664;2022-07-06T01:51:19;100442.00;;;17.16;82.51
55759;BME280;41678;52.126;20.664;2022-07-06T01:56:40;100433.41;;;17.07;82.44
55759;BME280;41678;52.126;20.664;2022-07-06T02:02:00;100442.22;;;17.09;82.26
55759;BME280;41678;52.126;20.664;2022-07-06T02:07:20;100439.78;;;17.03;82.35
55759;BME280;41678;52.126;20.664;2022-07-06T02:12:39;100434.59;;;17.00;82.29
55759;BME280;41678;52.126;20.664;2022-07-06T02:17:59;100429.19;;;17.02;82.38
55759;BME280;41678;52.126;20.664;2022-07-06T02:23:20;100444.19;;;17.04;82.47
55759;BME280;41678;52.126;20.664;2022-07-06T02:28:39;100449.44;;;17.06;82.48
55759;BME280;41678;52.126;20.664;2022-07-06T02:34:00;100445.16;;;17.02;82.69
55759;BME280;41678;52.126;20.664;2022-07-06T02:39:20;100438.22;;;16.96;82.44
55759;BME280;41678;52.126;20.664;2022-07-06T02:44:40;100439.03;;;16.99;82.42
55759;BME280;41678;52.126;20.664;2022-07-06T02:50:00;100439.78;;;17.03;82.64
55759;BME280;41678;52.126;20.664;2022-07-06T02:55:21;100446.16;;;16.97;82.69
55759;BME280;41678;52.126;20.664;2022-07-06T03:00:42;100434.75;;;16.94;82.58
55759;BME280;41678;52.126;20.664;2022-07-06T03:06:03;100440.19;;;16.91;82.70
55759;BME280;41678;52.126;20.664;2022-07-06T03:11:24;100435.69;;;16.93;82.42
55759;BME280;41678;52.126;20.664;2022-07-06T03:16:45;100422.47;;;16.91;82.45
55759;BME280;41678;52.126;20.664;2022-07-06T03:22:05;100411.75;;;16.93;82.39
55759;BME280;41678;52.126;20.664;2022-07-06T03:27:25;100413.22;;;17.02;82.62
55759;BME280;41678;52.126;20.664;2022-07-06T03:32:45;100417.59;;;17.04;82.80
55759;BME280;41678;52.126;20.664;2022-07-06T03:38:05;100406.31;;;16.96;82.93
55759;BME280;41678;52.126;20.664;2022-07-06T03:43:26;100410.66;;;17.00;82.90
55759;BME280;41678;52.126;20.664;2022-07-06T03:48:47;100414.41;;;16.93;82.80
55759;BME280;41678;52.126;20.664;2022-07-06T03:54:07;100410.91;;;16.92;82.72
55759;BME280;41678;52.126;20.664;2022-07-06T03:59:27;100400.31;;;16.91;82.98
55759;BME280;41678;52.126;20.664;2022-07-06T04:04:47;100415.88;;;17.02;83.24
55759;BME280;41678;52.126;20.664;2022-07-06T04:10:07;100402.78;;;16.95;83.03
55759;BME280;41678;52.126;20.664;2022-07-06T04:15:27;100405.31;;;17.00;82.86
55759;BME280;41678;52.126;20.664;2022-07-06T04:20:47;100404.97;;;17.09;83.09
55759;BME280;41678;52.126;20.664;2022-07-06T04:26:07;100406.00;;;17.05;83.25
55759;BME280;41678;52.126;20.664;2022-07-06T04:31:30;100406.78;;;17.09;83.50
55759;BME280;41678;52.126;20.664;2022-07-06T04:36:50;100401.53;;;17.06;83.74
55759;BME280;41678;52.126;20.664;2022-07-06T04:42:10;100402.19;;;17.12;83.75
55759;BME280;41678;52.126;20.664;2022-07-06T04:47:30;100396.81;;;17.14;84.27
55759;BME280;41678;52.126;20.664;2022-07-06T04:52:50;100398.56;;;17.15;84.22
55759;BME280;41678;52.126;20.664;2022-07-06T04:58:11;100395.78;;;17.18;84.94
55759;BME280;41678;52.126;20.664;2022-07-06T05:03:31;100396.69;;;17.17;84.46
55759;BME280;41678;52.126;20.664;2022-07-06T05:08:50;100406.88;;;17.30;85.33
55759;BME280;41678;52.126;20.664;2022-07-06T05:14:10;100407.94;;;17.25;85.51
55759;BME280;41678;52.126;20.664;2022-07-06T05:19:30;100414.91;;;17.28;85.86
55759;BME280;41678;52.126;20.664;2022-07-06T05:24:51;100409.84;;;17.22;85.50
55759;BME280;41678;52.126;20.664;2022-07-06T05:30:11;100412.66;;;17.17;85.19
55759;BME280;41678;52.126;20.664;2022-07-06T05:35:31;100428.41;;;17.23;85.97
55759;BME280;41678;52.126;20.664;2022-07-06T05:40:53;100428.31;;;17.26;85.91
55759;BME280;41678;52.126;20.664;2022-07-06T05:46:13;100435.03;;;17.37;86.46
55759;BME280;41678;52.126;20.664;2022-07-06T05:51:33;100439.22;;;17.42;86.53
55759;BME280;41678;52.126;20.664;2022-07-06T05:56:54;100443.41;;;17.50;86.55
55759;BME280;41678;52.126;20.664;2022-07-06T06:02:15;100438.59;;;17.60;87.28
55759;BME280;41678;52.126;20.664;2022-07-06T06:07:36;100433.44;;;17.55;86.36
55759;BME280;41678;52.126;20.664;2022-07-06T06:12:57;100439.09;;;17.69;87.23
55759;BME280;41678;52.126;20.664;2022-07-06T06:18:18;100439.91;;;17.72;86.89
55759;BME280;41678;52.126;20.664;2022-07-06T06:23:38;100436.22;;;17.76;86.79
55759;BME280;41678;52.126;20.664;2022-07-06T06:28:57;100441.53;;;17.76;86.75
55759;BME280;41678;52.126;20.664;2022-07-06T06:34:17;100445.00;;;17.78;86.99
55759;BME280;41678;52.126;20.664;2022-07-06T06:39:37;100445.06;;;17.76;86.61
55759;BME280;41678;52.126;20.664;2022-07-06T06:44:56;100447.41;;;17.84;86.72
55759;BME280;41678;52.126;20.664;2022-07-06T06:50:17;100444.53;;;17.90;86.37
55759;BME280;41678;52.126;20.664;2022-07-06T06:55:36;100454.78;;;17.99;86.20
55759;BME280;41678;52.126;20.664;2022-07-06T07:00:56;100443.41;;;18.18;86.46
55759;BME280;41678;52.126;20.664;2022-07-06T07:06:15;100442.91;;;18.31;86.28
55759;BME280;41678;52.126;20.664;2022-07-06T07:11:35;100446.81;;;18.44;86.48
55759;BME280;41678;52.126;20.664;2022-07-06T07:16:55;100445.50;;;18.54;86.10
55759;BME280;41678;52.126;20.664;2022-07-06T07:22:14;100442.22;;;18.68;86.15
55759;BME280;41678;52.126;20.664;2022-07-06T07:27:34;100446.84;;;18.86;85.68
55759;BME280;41678;52.126;20.664;2022-07-06T07:32:54;100452.59;;;18.97;85.42
55759;BME280;41678;52.126;20.664;2022-07-06T07:38:15;100456.97;;;18.98;84.50
55759;BME280;41678;52.126;20.664;2022-07-06T07:43:34;100464.00;;;19.01;84.86
55759;BME280;41678;52.126;20.664;2022-07-06T07:48:55;100455.94;;;19.02;84.27
55759;BME280;41678;52.126;20.664;2022-07-06T07:54:14;100467.22;;;19.09;84.14
55759;BME280;41678;52.126;20.664;2022-07-06T07:59:34;100459.06;;;19.12;83.41
55759;BME280;41678;52.126;20.664;2022-07-06T08:04:54;100457.38;;;19.09;83.38
55759;BME280;41678;52.126;20.664;2022-07-06T08:10:14;100458.88;;;19.17;82.07
55759;BME280;41678;52.126;20.664;2022-07-06T08:15:34;100451.59;;;19.20;81.54
55759;BME280;41678;52.126;20.664;2022-07-06T08:20:54;100444.38;;;19.22;81.84
55759;BME280;41678;52.126;20.664;2022-07-06T08:26:15;100459.00;;;19.33;81.47
55759;BME280;41678;52.126;20.664;2022-07-06T08:31:37;100470.38;;;19.38;80.87
55759;BME280;41678;52.126;20.664;2022-07-06T08:37:07;100460.84;;;19.32;81.16
55759;BME280;41678;52.126;20.664;2022-07-06T08:42:31;100466.13;;;19.34;80.74
55759;BME280;41678;52.126;20.664;2022-07-06T08:47:53;100467.56;;;19.41;79.74
55759;BME280;41678;52.126;20.664;2022-07-06T08:53:14;100467.41;;;19.44;79.87
55759;BME280;41678;52.126;20.664;2022-07-06T08:58:34;100469.13;;;19.45;79.42
55759;BME280;41678;52.126;20.664;2022-07-06T09:03:55;100479.19;;;19.59;78.30
55759;BME280;41678;52.126;20.664;2022-07-06T09:09:21;100477.22;;;19.63;78.91
55759;BME280;41678;52.126;20.664;2022-07-06T09:14:42;100470.75;;;19.68;78.68
55759;BME280;41678;52.126;20.664;2022-07-06T09:20:02;100470.38;;;19.76;78.30
55759;BME280;41678;52.126;20.664;2022-07-06T09:25:22;100457.91;;;19.77;76.61
55759;BME280;41678;52.126;20.664;2022-07-06T09:30:43;100459.63;;;19.78;74.07
55759;BME280;41678;52.126;20.664;2022-07-06T09:36:04;100465.78;;;19.80;73.51
55759;BME280;41678;52.126;20.664;2022-07-06T09:41:34;100464.47;;;19.89;73.46
55759;BME280;41678;52.126;20.664;2022-07-06T09:46:56;100457.75;;;19.80;72.43
55759;BME280;41678;52.126;20.664;2022-07-06T09:52:16;100463.97;;;19.80;72.59
55759;BME280;41678;52.126;20.664;2022-07-06T09:57:36;100461.78;;;19.89;71.87
55759;BME280;41678;52.126;20.664;2022-07-06T10:02:55;100462.34;;;19.97;72.38
55759;BME280;41678;52.126;20.664;2022-07-06T10:08:16;100463.84;;;20.03;71.47
55759;BME280;41678;52.126;20.664;2022-07-06T10:13:37;100464.41;;;20.09;70.61
55759;BME280;41678;52.126;20.664;2022-07-06T10:18:57;100469.50;;;20.14;70.80
55759;BME280;41678;52.126;20.664;2022-07-06T10:24:21;100477.09;;;20.23;69.68
55759;BME280;41678;52.126;20.664;2022-07-06T10:29:41;100467.81;;;20.31;68.88
55759;BME280;41678;52.126;20.664;2022-07-06T10:35:01;100477.44;;;20.35;66.98
55759;BME280;41678;52.126;20.664;2022-07-06T10:40:32;100476.19;;;20.42;68.37
55759;BME280;41678;52.126;20.664;2022-07-06T10:46:15;100476.19;;;20.42;67.69
55759;BME280;41678;52.126;20.664;2022-07-06T10:51:40;100474.28;;;20.44;68.31
55759;BME280;41678;52.126;20.664;2022-07-06T10:57:08;100484.53;;;20.53;68.19
55759;BME280;41678;52.126;20.664;2022-07-06T11:02:38;100478.09;;;20.58;67.62
55759;BME280;41678;52.126;20.664;2022-07-06T11:08:01;100486.50;;;20.67;66.46
55759;BME280;41678;52.126;20.664;2022-07-06T11:13:27;100469.59;;;20.67;66.38
55759;BME280;41678;52.126;20.664;2022-07-06T11:18:50;100480.31;;;20.67;66.14
55759;BME280;41678;52.126;20.664;2022-07-06T11:24:23;100478.09;;;20.75;65.68
55759;BME280;41678;52.126;20.664;2022-07-06T11:29:44;100472.59;;;20.78;64.31
55759;BME280;41678;52.126;20.664;2022-07-06T11:35:04;100470.75;;;20.80;64.02
55759;BME280;41678;52.126;20.664;2022-07-06T11:40:24;100463.16;;;20.89;63.64
55759;BME280;41678;52.126;20.664;2022-07-06T11:45:44;100449.63;;;20.92;63.49
55759;BME280;41678;52.126;20.664;2022-07-06T11:51:04;100444.59;;;20.86;62.58
55759;BME280;41678;52.126;20.664;2022-07-06T11:56:24;100441.75;;;20.89;63.04
55759;BME280;41678;52.126;20.664;2022-07-06T12:01:45;100450.50;;;20.92;62.56
55759;BME280;41678;52.126;20.664;2022-07-06T12:07:06;100459.25;;;20.96;63.38
55759;BME280;41678;52.126;20.664;2022-07-06T12:12:31;100461.13;;;20.94;63.26
55759;BME280;41678;52.126;20.664;2022-07-06T12:25:35;100457.34;;;20.98;62.64
55759;BME280;41678;52.126;20.664;2022-07-06T12:30:55;100447.34;;;21.02;63.33
55759;BME280;41678;52.126;20.664;2022-07-06T12:36:15;100449.63;;;21.09;61.68
55759;BME280;41678;52.126;20.664;2022-07-06T12:41:35;100447.72;;;21.12;61.44
55759;BME280;41678;52.126;20.664;2022-07-06T12:47:08;100446.06;;;21.09;62.81
55759;BME280;41678;52.126;20.664;2022-07-06T12:52:32;100445.22;;;21.08;62.63
55759;BME280;41678;52.126;20.664;2022-07-06T12:57:53;100444.94;;;21.13;62.88
55759;BME280;41678;52.126;20.664;2022-07-06T13:03:13;100452.72;;;21.18;62.62
55759;BME280;41678;52.126;20.664;2022-07-06T13:08:33;100449.28;;;21.16;61.21
55759;BME280;41678;52.126;20.664;2022-07-06T13:13:52;100459.19;;;21.14;62.43
55759;BME280;41678;52.126;20.664;2022-07-06T13:19:13;100464.31;;;21.18;62.97
55759;BME280;41678;52.126;20.664;2022-07-06T13:24:33;100469.91;;;21.14;62.72
55759;BME280;41678;52.126;20.664;2022-07-06T13:29:54;100477.78;;;21.17;61.97
55759;BME280;41678;52.126;20.664;2022-07-06T13:35:13;100471.16;;;21.06;61.71
55759;BME280;41678;52.126;20.664;2022-07-06T13:40:34;100479.38;;;21.03;61.54
55759;BME280;41678;52.126;20.664;2022-07-06T13:45:55;100475.47;;;20.93;62.40
55759;BME280;41678;52.126;20.664;2022-07-06T13:51:15;100482.53;;;20.94;62.96
55759;BME280;41678;52.126;20.664;2022-07-06T13:56:38;100484.72;;;20.86;62.62
55759;BME280;41678;52.126;20.664;2022-07-06T14:01:58;100474.19;;;20.83;62.97
55759;BME280;41678;52.126;20.664;2022-07-06T14:07:18;100479.81;;;20.76;63.30
55759;BME280;41678;52.126;20.664;2022-07-06T14:12:38;100485.50;;;20.70;63.63
55759;BME280;41678;52.126;20.664;2022-07-06T14:17:58;100497.06;;;20.71;64.19
55759;BME280;41678;52.126;20.664;2022-07-06T14:23:18;100505.00;;;20.72;63.78
55759;BME280;41678;52.126;20.664;2022-07-06T14:28:38;100508.56;;;20.73;63.58
55759;BME280;41678;52.126;20.664;2022-07-06T14:33:58;100508.63;;;20.71;63.81
55759;BME280;41678;52.126;20.664;2022-07-06T14:39:18;100508.94;;;20.65;64.11
55759;BME280;41678;52.126;20.664;2022-07-06T14:44:38;100525.06;;;20.63;64.57
55759;BME280;41678;52.126;20.664;2022-07-06T14:49:58;100522.69;;;20.57;64.87
55759;BME280;41678;52.126;20.664;2022-07-06T14:55:18;100527.66;;;20.47;64.97
55759;BME280;41678;52.126;20.664;2022-07-06T15:00:38;100535.78;;;20.44;65.06
55759;BME280;41678;52.126;20.664;2022-07-06T15:05:58;100532.94;;;20.30;65.22
55759;BME280;41678;52.126;20.664;2022-07-06T15:11:22;100532.44;;;20.21;65.48
55759;BME280;41678;52.126;20.664;2022-07-06T15:16:42;100539.09;;;20.13;65.74
55759;BME280;41678;52.126;20.664;2022-07-06T15:22:03;100530.00;;;19.98;65.96
55759;BME280;41678;52.126;20.664;2022-07-06T15:27:23;100527.84;;;19.85;65.92
55759;BME280;41678;52.126;20.664;2022-07-06T15:32:43;100518.56;;;19.75;65.87
55759;BME280;41678;52.126;20.664;2022-07-06T15:38:03;100510.16;;;19.63;65.92
55759;BME280;41678;52.126;20.664;2022-07-06T15:43:23;100504.44;;;19.52;65.89
55759;BME280;41678;52.126;20.664;2022-07-06T15:48:43;100510.06;;;19.46;66.18
55759;BME280;41678;52.126;20.664;2022-07-06T15:54:03;100503.34;;;19.37;66.23
55759;BME280;41678;52.126;20.664;2022-07-06T15:59:22;100501.03;;;19.29;66.51
55759;BME280;41678;52.126;20.664;2022-07-06T16:04:42;100501.28;;;19.23;66.67
55759;BME280;41678;52.126;20.664;2022-07-06T16:10:02;100501.38;;;19.21;66.58
55759;BME280;41678;52.126;20.664;2022-07-06T16:15:22;100496.22;;;19.17;67.00
55759;BME280;41678;52.126;20.664;2022-07-06T16:20:42;100491.97;;;19.13;67.40
55759;BME280;41678;52.126;20.664;2022-07-06T16:26:02;100492.03;;;19.11;67.44
55759;BME280;41678;52.126;20.664;2022-07-06T16:31:22;100484.22;;;19.06;67.33
55759;BME280;41678;52.126;20.664;2022-07-06T16:36:42;100491.41;;;19.04;67.21
55759;BME280;41678;52.126;20.664;2022-07-06T16:42:02;100482.00;;;18.95;67.68
55759;BME280;41678;52.126;20.664;2022-07-06T16:47:23;100479.25;;;18.97;67.42
55759;BME280;41678;52.126;20.664;2022-07-06T16:52:42;100477.53;;;18.96;67.75
55759;BME280;41678;52.126;20.664;2022-07-06T16:58:02;100489.94;;;18.97;67.87
55759;BME280;41678;52.126;20.664;2022-07-06T17:03:22;100493.53;;;18.96;68.03
55759;BME280;41678;52.126;20.664;2022-07-06T17:08:42;100483.72;;;18.96;68.35
55759;BME280;41678;52.126;20.664;2022-07-06T17:14:02;100478.44;;;18.95;68.13
55759;BME280;41678;52.126;20.664;2022-07-06T17:19:22;100479.66;;;18.88;68.13
55759;BME280;41678;52.126;20.664;2022-07-06T19:24:55;100519.41;;;17.33;70.50
55759;BME280;41678;52.126;20.664;2022-07-06T19:30:14;100518.88;;;17.23;70.45
55759;BME280;41678;52.126;20.664;2022-07-06T19:43:08;100527.56;;;17.03;70.52
55759;BME280;41678;52.126;20.664;2022-07-06T19:48:27;100537.66;;;16.92;71.16
55759;BME280;41678;52.126;20.664;2022-07-06T19:53:47;100541.34;;;16.88;71.08
55759;BME280;41678;52.126;20.664;2022-07-06T19:59:07;100540.72;;;16.79;71.36
55759;BME280;41678;52.126;20.664;2022-07-06T20:04:27;100533.13;;;16.68;70.86
55759;BME280;41678;52.126;20.664;2022-07-06T20:09:47;100536.13;;;16.57;71.45
55759;BME280;41678;52.126;20.664;2022-07-06T20:15:08;100534.44;;;16.55;71.47
55759;BME280;41678;52.126;20.664;2022-07-06T20:20:28;100530.41;;;16.43;71.39
55759;BME280;41678;52.126;20.664;2022-07-06T20:25:47;100532.38;;;16.36;71.44
55759;BME280;41678;52.126;20.664;2022-07-06T20:31:08;100534.31;;;16.31;71.48
55759;BME280;41678;52.126;20.664;2022-07-06T20:36:28;100531.91;;;16.23;71.53
55759;BME280;41678;52.126;20.664;2022-07-06T20:41:48;100530.34;;;16.16;72.08
55759;BME280;41678;52.126;20.664;2022-07-06T20:47:08;100531.47;;;16.09;71.94
55759;BME280;41678;52.126;20.664;2022-07-06T20:52:27;100543.97;;;16.05;72.07
55759;BME280;41678;52.126;20.664;2022-07-06T20:57:47;100531.69;;;16.01;71.76
55759;BME280;41678;52.126;20.664;2022-07-06T21:03:07;100534.66;;;15.90;72.25
55759;BME280;41678;52.126;20.664;2022-07-06T21:08:27;100536.56;;;15.85;71.84
55759;BME280;41678;52.126;20.664;2022-07-06T21:13:47;100542.78;;;15.84;72.14
55759;BME280;41678;52.126;20.664;2022-07-06T21:19:06;100542.88;;;15.81;72.15
55759;BME280;41678;52.126;20.664;2022-07-06T21:24:26;100549.13;;;15.78;72.09
55759;BME280;41678;52.126;20.664;2022-07-06T21:29:47;100543.72;;;15.81;72.13
55759;BME280;41678;52.126;20.664;2022-07-06T21:35:07;100552.59;;;15.80;71.93
55759;BME280;41678;52.126;20.664;2022-07-06T21:40:26;100551.81;;;15.77;72.16
55759;BME280;41678;52.126;20.664;2022-07-06T21:45:46;100551.06;;;15.73;72.50
55759;BME280;41678;52.126;20.664;2022-07-06T21:51:06;100551.09;;;15.71;72.49
55759;BME280;41678;52.126;20.664;2022-07-06T21:56:26;100562.66;;;15.69;72.94
55759;BME280;41678;52.126;20.664;2022-07-06T22:01:46;100566.31;;;15.65;72.46
55759;BME280;41678;52.126;20.664;2022-07-06T22:07:06;100566.44;;;15.60;72.64
55759;BME280;41678;52.126;20.664;2022-07-06T22:12:25;100575.31;;;15.59;72.27
55759;BME280;41678;52.126;20.664;2022-07-06T22:17:46;100570.16;;;15.54;72.32
55759;BME280;41678;52.126;20.664;2022-07-06T22:23:05;100579.97;;;15.51;72.82
55759;BME280;41678;52.126;20.664;2022-07-06T22:28:25;100577.44;;;15.48;72.53
55759;BME280;41678;52.126;20.664;2022-07-06T22:33:46;100581.13;;;15.40;73.12
55759;BME280;41678;52.126;20.664;2022-07-06T22:39:05;100586.56;;;15.36;73.36
55759;BME280;41678;52.126;20.664;2022-07-06T22:44:25;100576.97;;;15.30;73.10
55759;BME280;41678;52.126;20.664;2022-07-06T22:49:46;100579.72;;;15.27;72.73
55759;BME280;41678;52.126;20.664;2022-07-06T22:55:06;100570.19;;;15.20;72.88
55759;BME280;41678;52.126;20.664;2022-07-06T23:00:27;100577.34;;;15.18;72.74
55759;BME280;41678;52.126;20.664;2022-07-06T23:05:47;100571.31;;;15.11;72.73
55759;BME280;41678;52.126;20.664;2022-07-06T23:11:08;100581.13;;;15.07;72.92
55759;BME280;41678;52.126;20.664;2022-07-06T23:16:28;100575.94;;;15.01;72.88
55759;BME280;41678;52.126;20.664;2022-07-06T23:21:47;100574.31;;;14.97;73.01
55759;BME280;41678;52.126;20.664;2022-07-06T23:27:07;100569.97;;;14.94;73.19
55759;BME280;41678;52.126;20.664;2022-07-06T23:32:27;100571.75;;;14.92;73.11
55759;BME280;41678;52.126;20.664;2022-07-06T23:37:47;100572.72;;;14.90;73.32
55759;BME280;41678;52.126;20.664;2022-07-06T23:43:07;100564.06;;;14.83;73.48
55759;BME280;41678;52.126;20.664;2022-07-06T23:48:27;100568.56;;;14.78;73.53
55759;BME280;41678;52.126;20.664;2022-07-06T23:53:47;100572.19;;;14.75;73.31
55759;BME280;41678;52.126;20.664;2022-07-06T23:59:07;100568.75;;;14.71;73.05
